Hauptseite
METAR-TAF:

METAR-TAF

Flughäfen :

Flughafen Kuwait

Kuwait-Stadt, Kuwait

Breite: 29-13N, Länge: 047-59E, Höhe: 55 m

Beobachtung

Neuester Wetterbericht von vor 40 Minuten, um 03:00 UTC
Wind 8 kt aus West
Temperatur 29°C
Luftfeuchtigkeit 22%
Luftdruck 1002 hPa
Sichtweite: 5000 m
Himmel klar
(schwach) trockener Dunst

METAR: OKBK 240300Z 28008KT 5000 -HZ SKC 29/05 Q1002 NOSIG

Zeit: 06:40 (03:40 UTC)

Prognose

Neuester Wetterbericht von vor 4 Stunden und 55 Minuten, um 22:45 UTC
Gültige Prognose vom 24 um 00 UTC bis 25 um 06 UTC
Wind 10 kt aus West/Nordwest, Böen bis zu 20 kt
Sichtweite: 6000 m
Himmel klar
Zeitweise
vom 24 um 00 UTC bis 24 um 14 UTC
Sichtweite: 4000 m
Staubtreiben

TAF: OKBK 232245Z 2400/2506 30010G20KT 6000 SKC TEMPO 2400/2414 4000 BLDU

Wetterbeobachtungen und Prognosen von mehr als 4000 Flughäfen (METAR und TAF Bericht).

Die verfügbaren Stationen werden durch gelbe und rote Markierungen auf der Karte dargestellt.

Führen Sie die Maus auf sie, um den Namen der Station zu sehen.

Darauf klicken, um die Beobachtung von Wetterbeobachtungen und Prognosen zu sehen.

Um die Karte zu ändern : klicken Sie auf den grünen Tasten mit einem schwarzen Kreuz Zum Vergrößern, auf den grünen Button mit einem Gedankenstrich zu verkleinern, oder auf die grünen Pfeile für benachbarte Karten.


METAR-TAF: